sensor_id;sensor_type;location;lat;lon;timestamp;P1;durP1;ratioP1;P2;durP2;ratioP2
31728;SDS011;18309;43.658;1.312;2023-01-15T00:00:41;14.80;;;5.00;;
31728;SDS011;18309;43.658;1.312;2023-01-15T00:03:06;17.17;;;5.47;;
31728;SDS011;18309;43.658;1.312;2023-01-15T00:05:34;14.07;;;5.03;;
31728;SDS011;18309;43.658;1.312;2023-01-15T00:08:00;14.88;;;5.25;;
31728;SDS011;18309;43.658;1.312;2023-01-15T00:10:26;19.65;;;6.18;;
31728;SDS011;18309;43.658;1.312;2023-01-15T00:12:52;11.98;;;4.65;;
31728;SDS011;18309;43.658;1.312;2023-01-15T00:15:18;18.92;;;4.85;;
31728;SDS011;18309;43.658;1.312;2023-01-15T00:17:44;17.98;;;5.90;;
31728;SDS011;18309;43.658;1.312;2023-01-15T00:20:10;24.13;;;6.07;;
31728;SDS011;18309;43.658;1.312;2023-01-15T00:22:36;16.63;;;4.78;;
31728;SDS011;18309;43.658;1.312;2023-01-15T00:25:02;14.70;;;5.00;;
31728;SDS011;18309;43.658;1.312;2023-01-15T00:27:47;11.68;;;4.55;;
31728;SDS011;18309;43.658;1.312;2023-01-15T00:30:13;20.77;;;6.28;;
31728;SDS011;18309;43.658;1.312;2023-01-15T00:32:41;15.45;;;5.82;;
31728;SDS011;18309;43.658;1.312;2023-01-15T00:35:12;16.33;;;6.45;;
31728;SDS011;18309;43.658;1.312;2023-01-15T00:37:40;25.60;;;7.60;;
31728;SDS011;18309;43.658;1.312;2023-01-15T00:40:06;26.15;;;7.18;;
31728;SDS011;18309;43.658;1.312;2023-01-15T00:42:32;25.75;;;7.50;;
31728;SDS011;18309;43.658;1.312;2023-01-15T00:44:58;21.65;;;7.50;;
31728;SDS011;18309;43.658;1.312;2023-01-15T00:47:29;16.52;;;7.05;;
31728;SDS011;18309;43.658;1.312;2023-01-15T00:49:55;18.13;;;6.75;;
31728;SDS011;18309;43.658;1.312;2023-01-15T00:52:21;21.45;;;7.10;;
31728;SDS011;18309;43.658;1.312;2023-01-15T00:54:46;19.70;;;6.97;;
31728;SDS011;18309;43.658;1.312;2023-01-15T00:57:12;18.83;;;7.43;;
31728;SDS011;18309;43.658;1.312;2023-01-15T00:59:38;19.40;;;6.95;;
31728;SDS011;18309;43.658;1.312;2023-01-15T01:02:04;18.75;;;6.97;;
31728;SDS011;18309;43.658;1.312;2023-01-15T01:04:29;24.02;;;8.15;;
31728;SDS011;18309;43.658;1.312;2023-01-15T01:06:55;19.40;;;7.38;;
31728;SDS011;18309;43.658;1.312;2023-01-15T01:09:21;20.25;;;7.00;;
31728;SDS011;18309;43.658;1.312;2023-01-15T01:11:47;26.42;;;9.25;;
31728;SDS011;18309;43.658;1.312;2023-01-15T01:14:13;39.20;;;12.45;;
31728;SDS011;18309;43.658;1.312;2023-01-15T01:16:39;26.83;;;9.00;;
31728;SDS011;18309;43.658;1.312;2023-01-15T01:19:10;18.92;;;6.30;;
31728;SDS011;18309;43.658;1.312;2023-01-15T01:21:41;19.75;;;6.28;;
31728;SDS011;18309;43.658;1.312;2023-01-15T01:24:11;18.75;;;6.50;;
31728;SDS011;18309;43.658;1.312;2023-01-15T01:26:42;20.45;;;6.95;;
31728;SDS011;18309;43.658;1.312;2023-01-15T01:29:12;27.00;;;7.63;;
31728;SDS011;18309;43.658;1.312;2023-01-15T01:31:40;20.20;;;6.13;;
31728;SDS011;18309;43.658;1.312;2023-01-15T01:34:05;16.13;;;6.70;;
31728;SDS011;18309;43.658;1.312;2023-01-15T01:36:35;12.80;;;5.30;;
31728;SDS011;18309;43.658;1.312;2023-01-15T01:39:05;12.32;;;5.30;;
31728;SDS011;18309;43.658;1.312;2023-01-15T01:41:34;18.10;;;5.80;;
31728;SDS011;18309;43.658;1.312;2023-01-15T01:46:28;20.60;;;6.28;;
31728;SDS011;18309;43.658;1.312;2023-01-15T01:49:03;20.42;;;6.88;;
31728;SDS011;18309;43.658;1.312;2023-01-15T01:51:34;18.35;;;6.28;;
31728;SDS011;18309;43.658;1.312;2023-01-15T01:54:07;18.08;;;6.32;;
31728;SDS011;18309;43.658;1.312;2023-01-15T01:56:34;18.60;;;7.20;;
31728;SDS011;18309;43.658;1.312;2023-01-15T01:59:00;19.73;;;7.13;;
31728;SDS011;18309;43.658;1.312;2023-01-15T02:01:28;19.77;;;5.97;;
31728;SDS011;18309;43.658;1.312;2023-01-15T02:03:54;21.20;;;6.75;;
31728;SDS011;18309;43.658;1.312;2023-01-15T02:06:21;33.03;;;6.95;;
31728;SDS011;18309;43.658;1.312;2023-01-15T02:08:49;25.73;;;6.57;;
31728;SDS011;18309;43.658;1.312;2023-01-15T02:11:16;15.32;;;5.95;;
31728;SDS011;18309;43.658;1.312;2023-01-15T02:13:47;19.90;;;6.95;;
31728;SDS011;18309;43.658;1.312;2023-01-15T02:19:22;28.35;;;7.35;;
31728;SDS011;18309;43.658;1.312;2023-01-15T02:28:30;24.48;;;8.00;;
31728;SDS011;18309;43.658;1.312;2023-01-15T02:31:01;20.38;;;7.47;;
31728;SDS011;18309;43.658;1.312;2023-01-15T02:33:57;19.15;;;7.68;;
31728;SDS011;18309;43.658;1.312;2023-01-15T02:36:25;20.55;;;8.07;;
31728;SDS011;18309;43.658;1.312;2023-01-15T02:38:55;25.15;;;9.38;;
31728;SDS011;18309;43.658;1.312;2023-01-15T02:41:28;28.50;;;9.98;;
31728;SDS011;18309;43.658;1.312;2023-01-15T02:43:57;23.25;;;9.02;;
31728;SDS011;18309;43.658;1.312;2023-01-15T02:46:27;19.48;;;9.23;;
31728;SDS011;18309;43.658;1.312;2023-01-15T02:48:56;21.63;;;8.60;;
31728;SDS011;18309;43.658;1.312;2023-01-15T02:51:25;25.80;;;9.27;;
31728;SDS011;18309;43.658;1.312;2023-01-15T02:53:57;22.70;;;8.27;;
31728;SDS011;18309;43.658;1.312;2023-01-15T02:56:26;26.50;;;9.63;;
31728;SDS011;18309;43.658;1.312;2023-01-15T03:01:46;29.02;;;8.57;;
31728;SDS011;18309;43.658;1.312;2023-01-15T03:06:55;24.67;;;7.63;;
31728;SDS011;18309;43.658;1.312;2023-01-15T03:09:30;27.45;;;9.32;;
31728;SDS011;18309;43.658;1.312;2023-01-15T03:14:51;19.27;;;7.78;;
31728;SDS011;18309;43.658;1.312;2023-01-15T03:18:02;20.75;;;9.27;;
31728;SDS011;18309;43.658;1.312;2023-01-15T03:20:30;24.42;;;9.35;;
31728;SDS011;18309;43.658;1.312;2023-01-15T03:22:58;22.15;;;9.98;;
31728;SDS011;18309;43.658;1.312;2023-01-15T03:25:29;21.92;;;9.73;;
31728;SDS011;18309;43.658;1.312;2023-01-15T03:30:26;23.00;;;9.55;;
31728;SDS011;18309;43.658;1.312;2023-01-15T03:32:53;24.42;;;9.90;;
31728;SDS011;18309;43.658;1.312;2023-01-15T03:38:25;23.40;;;10.80;;
31728;SDS011;18309;43.658;1.312;2023-01-15T03:46:07;23.33;;;8.90;;
31728;SDS011;18309;43.658;1.312;2023-01-15T03:49:00;18.73;;;9.60;;
31728;SDS011;18309;43.658;1.312;2023-01-15T03:54:56;24.00;;;9.38;;
31728;SDS011;18309;43.658;1.312;2023-01-15T03:59:58;19.00;;;8.40;;
31728;SDS011;18309;43.658;1.312;2023-01-15T04:02:28;23.58;;;9.32;;
31728;SDS011;18309;43.658;1.312;2023-01-15T04:04:55;18.25;;;8.00;;
31728;SDS011;18309;43.658;1.312;2023-01-15T04:07:22;20.38;;;9.45;;
31728;SDS011;18309;43.658;1.312;2023-01-15T04:09:49;20.38;;;8.52;;
31728;SDS011;18309;43.658;1.312;2023-01-15T04:12:15;23.60;;;8.25;;
31728;SDS011;18309;43.658;1.312;2023-01-15T04:14:41;18.38;;;7.70;;
31728;SDS011;18309;43.658;1.312;2023-01-15T04:17:07;23.67;;;8.90;;
31728;SDS011;18309;43.658;1.312;2023-01-15T04:19:32;16.02;;;7.95;;
31728;SDS011;18309;43.658;1.312;2023-01-15T04:21:58;22.50;;;8.32;;
31728;SDS011;18309;43.658;1.312;2023-01-15T04:24:24;16.80;;;7.53;;
31728;SDS011;18309;43.658;1.312;2023-01-15T04:26:50;19.98;;;8.10;;
31728;SDS011;18309;43.658;1.312;2023-01-15T04:29:16;18.13;;;7.07;;
31728;SDS011;18309;43.658;1.312;2023-01-15T04:31:41;22.17;;;7.88;;
31728;SDS011;18309;43.658;1.312;2023-01-15T04:34:07;19.33;;;7.85;;
31728;SDS011;18309;43.658;1.312;2023-01-15T04:36:33;18.67;;;7.45;;
31728;SDS011;18309;43.658;1.312;2023-01-15T04:39:00;14.77;;;7.45;;
31728;SDS011;18309;43.658;1.312;2023-01-15T04:41:26;19.63;;;7.55;;
31728;SDS011;18309;43.658;1.312;2023-01-15T04:44:10;21.83;;;7.65;;
31728;SDS011;18309;43.658;1.312;2023-01-15T04:46:37;16.77;;;8.20;;
31728;SDS011;18309;43.658;1.312;2023-01-15T04:49:10;15.90;;;7.95;;
31728;SDS011;18309;43.658;1.312;2023-01-15T04:51:37;20.95;;;7.85;;
31728;SDS011;18309;43.658;1.312;2023-01-15T04:54:04;20.80;;;7.75;;
31728;SDS011;18309;43.658;1.312;2023-01-15T04:56:36;16.50;;;7.25;;
31728;SDS011;18309;43.658;1.312;2023-01-15T04:59:07;21.95;;;8.27;;
31728;SDS011;18309;43.658;1.312;2023-01-15T05:01:33;20.20;;;7.53;;
31728;SDS011;18309;43.658;1.312;2023-01-15T05:03:59;22.15;;;6.68;;
31728;SDS011;18309;43.658;1.312;2023-01-15T05:06:25;17.83;;;6.75;;
31728;SDS011;18309;43.658;1.312;2023-01-15T05:08:51;15.88;;;6.30;;
31728;SDS011;18309;43.658;1.312;2023-01-15T05:11:17;17.52;;;6.60;;
31728;SDS011;18309;43.658;1.312;2023-01-15T05:13:43;14.15;;;6.30;;
31728;SDS011;18309;43.658;1.312;2023-01-15T05:16:13;15.35;;;6.43;;
31728;SDS011;18309;43.658;1.312;2023-01-15T05:18:43;15.30;;;6.15;;
31728;SDS011;18309;43.658;1.312;2023-01-15T05:21:17;14.90;;;5.77;;
31728;SDS011;18309;43.658;1.312;2023-01-15T05:23:45;14.30;;;5.65;;
31728;SDS011;18309;43.658;1.312;2023-01-15T05:26:11;13.55;;;6.07;;
31728;SDS011;18309;43.658;1.312;2023-01-15T05:28:37;15.00;;;6.13;;
31728;SDS011;18309;43.658;1.312;2023-01-15T05:31:06;16.65;;;5.28;;
31728;SDS011;18309;43.658;1.312;2023-01-15T05:33:33;14.95;;;5.70;;
31728;SDS011;18309;43.658;1.312;2023-01-15T05:36:01;12.07;;;5.82;;
31728;SDS011;18309;43.658;1.312;2023-01-15T05:38:28;16.35;;;5.50;;
31728;SDS011;18309;43.658;1.312;2023-01-15T05:40:54;13.88;;;5.25;;
31728;SDS011;18309;43.658;1.312;2023-01-15T05:43:20;14.07;;;5.32;;
31728;SDS011;18309;43.658;1.312;2023-01-15T05:45:45;14.32;;;5.72;;
31728;SDS011;18309;43.658;1.312;2023-01-15T05:48:11;12.13;;;4.82;;
31728;SDS011;18309;43.658;1.312;2023-01-15T05:50:37;20.35;;;8.45;;
31728;SDS011;18309;43.658;1.312;2023-01-15T05:53:02;19.80;;;8.13;;
31728;SDS011;18309;43.658;1.312;2023-01-15T05:55:28;24.35;;;9.57;;
31728;SDS011;18309;43.658;1.312;2023-01-15T05:57:54;18.60;;;8.10;;
31728;SDS011;18309;43.658;1.312;2023-01-15T06:00:20;15.50;;;7.45;;
31728;SDS011;18309;43.658;1.312;2023-01-15T06:02:48;25.75;;;9.15;;
31728;SDS011;18309;43.658;1.312;2023-01-15T06:05:15;22.92;;;8.00;;
31728;SDS011;18309;43.658;1.312;2023-01-15T06:07:47;18.15;;;6.07;;
31728;SDS011;18309;43.658;1.312;2023-01-15T06:10:14;17.75;;;5.20;;
31728;SDS011;18309;43.658;1.312;2023-01-15T06:12:41;15.75;;;6.18;;
31728;SDS011;18309;43.658;1.312;2023-01-15T06:15:07;14.15;;;4.82;;
31728;SDS011;18309;43.658;1.312;2023-01-15T06:17:33;15.73;;;5.55;;
31728;SDS011;18309;43.658;1.312;2023-01-15T06:19:59;12.57;;;4.20;;
31728;SDS011;18309;43.658;1.312;2023-01-15T06:22:25;13.73;;;4.57;;
31728;SDS011;18309;43.658;1.312;2023-01-15T06:24:51;12.07;;;4.13;;
31728;SDS011;18309;43.658;1.312;2023-01-15T06:27:16;11.38;;;3.63;;
31728;SDS011;18309;43.658;1.312;2023-01-15T06:29:42;14.55;;;3.53;;
31728;SDS011;18309;43.658;1.312;2023-01-15T06:32:08;13.73;;;3.00;;
31728;SDS011;18309;43.658;1.312;2023-01-15T06:34:33;10.68;;;2.80;;
31728;SDS011;18309;43.658;1.312;2023-01-15T06:37:00;14.50;;;3.67;;
31728;SDS011;18309;43.658;1.312;2023-01-15T06:39:26;9.80;;;2.50;;
31728;SDS011;18309;43.658;1.312;2023-01-15T06:41:51;6.30;;;1.83;;
31728;SDS011;18309;43.658;1.312;2023-01-15T06:44:35;10.98;;;1.85;;
31728;SDS011;18309;43.658;1.312;2023-01-15T06:47:20;9.52;;;1.52;;
31728;SDS011;18309;43.658;1.312;2023-01-15T06:49:46;9.20;;;1.90;;
31728;SDS011;18309;43.658;1.312;2023-01-15T06:52:22;8.93;;;1.40;;
31728;SDS011;18309;43.658;1.312;2023-01-15T06:54:49;4.10;;;1.25;;
31728;SDS011;18309;43.658;1.312;2023-01-15T06:57:15;7.80;;;0.90;;
31728;SDS011;18309;43.658;1.312;2023-01-15T06:59:43;4.15;;;0.93;;
31728;SDS011;18309;43.658;1.312;2023-01-15T07:02:09;2.20;;;0.55;;
31728;SDS011;18309;43.658;1.312;2023-01-15T07:04:36;3.33;;;0.70;;
31728;SDS011;18309;43.658;1.312;2023-01-15T07:07:01;2.42;;;0.45;;
31728;SDS011;18309;43.658;1.312;2023-01-15T07:09:27;4.03;;;0.50;;
31728;SDS011;18309;43.658;1.312;2023-01-15T07:11:53;0.90;;;0.40;;
31728;SDS011;18309;43.658;1.312;2023-01-15T07:14:20;1.50;;;0.32;;
31728;SDS011;18309;43.658;1.312;2023-01-15T07:16:47;1.55;;;0.82;;
31728;SDS011;18309;43.658;1.312;2023-01-15T07:19:14;1.02;;;0.30;;
31728;SDS011;18309;43.658;1.312;2023-01-15T07:21:40;4.90;;;0.20;;
31728;SDS011;18309;43.658;1.312;2023-01-15T07:24:06;1.55;;;0.30;;
31728;SDS011;18309;43.658;1.312;2023-01-15T07:26:33;1.00;;;0.28;;
31728;SDS011;18309;43.658;1.312;2023-01-15T07:28:59;1.50;;;0.40;;
31728;SDS011;18309;43.658;1.312;2023-01-15T07:31:24;1.05;;;0.30;;
31728;SDS011;18309;43.658;1.312;2023-01-15T07:33:50;1.20;;;0.30;;
31728;SDS011;18309;43.658;1.312;2023-01-15T07:36:16;1.88;;;0.47;;
31728;SDS011;18309;43.658;1.312;2023-01-15T07:38:42;1.75;;;0.20;;
31728;SDS011;18309;43.658;1.312;2023-01-15T07:41:07;1.70;;;0.30;;
31728;SDS011;18309;43.658;1.312;2023-01-15T07:43:51;1.20;;;0.15;;
31728;SDS011;18309;43.658;1.312;2023-01-15T07:46:35;2.20;;;0.22;;
31728;SDS011;18309;43.658;1.312;2023-01-15T07:49:20;2.25;;;0.57;;
31728;SDS011;18309;43.658;1.312;2023-01-15T07:52:04;4.07;;;0.45;;
31728;SDS011;18309;43.658;1.312;2023-01-15T07:54:30;2.20;;;1.13;;
31728;SDS011;18309;43.658;1.312;2023-01-15T07:56:55;3.17;;;0.68;;
31728;SDS011;18309;43.658;1.312;2023-01-15T07:59:21;5.20;;;0.60;;
31728;SDS011;18309;43.658;1.312;2023-01-15T08:01:49;2.20;;;0.50;;
31728;SDS011;18309;43.658;1.312;2023-01-15T08:04:14;3.30;;;0.40;;
31728;SDS011;18309;43.658;1.312;2023-01-15T08:06:40;3.20;;;0.50;;
31728;SDS011;18309;43.658;1.312;2023-01-15T08:09:06;2.60;;;0.70;;
31728;SDS011;18309;43.658;1.312;2023-01-15T08:11:34;11.00;;;0.73;;
31728;SDS011;18309;43.658;1.312;2023-01-15T08:14:19;8.10;;;0.80;;
31728;SDS011;18309;43.658;1.312;2023-01-15T08:17:03;3.45;;;1.02;;
31728;SDS011;18309;43.658;1.312;2023-01-15T08:19:29;2.85;;;0.32;;
31728;SDS011;18309;43.658;1.312;2023-01-15T08:21:55;3.50;;;0.45;;
31728;SDS011;18309;43.658;1.312;2023-01-15T08:24:22;2.85;;;0.65;;
31728;SDS011;18309;43.658;1.312;2023-01-15T08:26:48;3.40;;;0.40;;
31728;SDS011;18309;43.658;1.312;2023-01-15T08:29:14;1.38;;;0.20;;
31728;SDS011;18309;43.658;1.312;2023-01-15T08:31:39;3.03;;;0.25;;
31728;SDS011;18309;43.658;1.312;2023-01-15T08:34:06;1.27;;;0.35;;
31728;SDS011;18309;43.658;1.312;2023-01-15T08:36:32;1.80;;;0.43;;
31728;SDS011;18309;43.658;1.312;2023-01-15T08:38:58;2.17;;;0.20;;
31728;SDS011;18309;43.658;1.312;2023-01-15T08:41:23;2.40;;;0.52;;
31728;SDS011;18309;43.658;1.312;2023-01-15T08:43:49;6.07;;;0.38;;
31728;SDS011;18309;43.658;1.312;2023-01-15T08:46:15;2.88;;;0.50;;
31728;SDS011;18309;43.658;1.312;2023-01-15T08:48:41;5.72;;;0.95;;
31728;SDS011;18309;43.658;1.312;2023-01-15T08:51:07;3.67;;;0.40;;
31728;SDS011;18309;43.658;1.312;2023-01-15T08:53:34;3.35;;;0.40;;
31728;SDS011;18309;43.658;1.312;2023-01-15T08:56:01;5.80;;;0.45;;
31728;SDS011;18309;43.658;1.312;2023-01-15T08:58:28;3.50;;;0.77;;
31728;SDS011;18309;43.658;1.312;2023-01-15T09:01:06;7.10;;;1.00;;
31728;SDS011;18309;43.658;1.312;2023-01-15T09:03:33;1.50;;;0.60;;
31728;SDS011;18309;43.658;1.312;2023-01-15T09:05:59;2.63;;;0.47;;
31728;SDS011;18309;43.658;1.312;2023-01-15T09:08:26;2.53;;;0.40;;
31728;SDS011;18309;43.658;1.312;2023-01-15T09:10:56;4.90;;;0.73;;
31728;SDS011;18309;43.658;1.312;2023-01-15T09:13:23;8.40;;;0.60;;
31728;SDS011;18309;43.658;1.312;2023-01-15T09:15:49;3.75;;;0.52;;
31728;SDS011;18309;43.658;1.312;2023-01-15T09:18:14;4.32;;;0.60;;
31728;SDS011;18309;43.658;1.312;2023-01-15T09:20:43;3.17;;;0.40;;
31728;SDS011;18309;43.658;1.312;2023-01-15T09:23:09;3.65;;;0.85;;
31728;SDS011;18309;43.658;1.312;2023-01-15T09:25:35;4.20;;;0.57;;
31728;SDS011;18309;43.658;1.312;2023-01-15T09:28:01;6.55;;;0.60;;
31728;SDS011;18309;43.658;1.312;2023-01-15T09:30:27;6.68;;;0.80;;
31728;SDS011;18309;43.658;1.312;2023-01-15T09:32:53;5.50;;;0.52;;
31728;SDS011;18309;43.658;1.312;2023-01-15T09:35:19;6.53;;;0.77;;
31728;SDS011;18309;43.658;1.312;2023-01-15T09:37:52;3.05;;;0.55;;
31728;SDS011;18309;43.658;1.312;2023-01-15T09:43:05;3.97;;;1.08;;
31728;SDS011;18309;43.658;1.312;2023-01-15T09:45:54;2.58;;;0.57;;
31728;SDS011;18309;43.658;1.312;2023-01-15T09:51:24;4.38;;;0.70;;
31728;SDS011;18309;43.658;1.312;2023-01-15T09:56:39;5.63;;;0.98;;
31728;SDS011;18309;43.658;1.312;2023-01-15T09:59:11;5.05;;;0.73;;
31728;SDS011;18309;43.658;1.312;2023-01-15T10:01:43;3.33;;;0.60;;
31728;SDS011;18309;43.658;1.312;2023-01-15T10:06:51;3.03;;;0.43;;
31728;SDS011;18309;43.658;1.312;2023-01-15T10:09:33;5.68;;;0.75;;
31728;SDS011;18309;43.658;1.312;2023-01-15T10:17:41;1.90;;;0.65;;
31728;SDS011;18309;43.658;1.312;2023-01-15T10:26:04;2.15;;;0.90;;
31728;SDS011;18309;43.658;1.312;2023-01-15T10:31:21;5.38;;;1.00;;
31728;SDS011;18309;43.658;1.312;2023-01-15T10:36:37;6.15;;;0.98;;
31728;SDS011;18309;43.658;1.312;2023-01-15T10:39:20;1.98;;;0.68;;
31728;SDS011;18309;43.658;1.312;2023-01-15T10:47:25;5.78;;;1.35;;
31728;SDS011;18309;43.658;1.312;2023-01-15T10:49:56;4.85;;;0.77;;
31728;SDS011;18309;43.658;1.312;2023-01-15T10:52:26;6.00;;;1.02;;
31728;SDS011;18309;43.658;1.312;2023-01-15T10:55:02;6.07;;;0.95;;
31728;SDS011;18309;43.658;1.312;2023-01-15T10:57:43;8.43;;;0.98;;
31728;SDS011;18309;43.658;1.312;2023-01-15T11:00:16;3.45;;;0.80;;
31728;SDS011;18309;43.658;1.312;2023-01-15T11:02:43;8.27;;;0.90;;
31728;SDS011;18309;43.658;1.312;2023-01-15T11:05:13;3.88;;;0.80;;
31728;SDS011;18309;43.658;1.312;2023-01-15T11:07:45;4.30;;;0.40;;
31728;SDS011;18309;43.658;1.312;2023-01-15T11:10:14;5.82;;;1.00;;
31728;SDS011;18309;43.658;1.312;2023-01-15T11:12:55;4.93;;;0.93;;
31728;SDS011;18309;43.658;1.312;2023-01-15T11:15:45;5.90;;;0.60;;
31728;SDS011;18309;43.658;1.312;2023-01-15T11:18:34;8.15;;;1.00;;
31728;SDS011;18309;43.658;1.312;2023-01-15T11:21:22;6.28;;;0.60;;
31728;SDS011;18309;43.658;1.312;2023-01-15T11:23:50;5.50;;;0.82;;
31728;SDS011;18309;43.658;1.312;2023-01-15T11:26:34;3.97;;;0.80;;
31728;SDS011;18309;43.658;1.312;2023-01-15T11:29:11;1.63;;;0.50;;
31728;SDS011;18309;43.658;1.312;2023-01-15T11:31:39;4.95;;;0.88;;
31728;SDS011;18309;43.658;1.312;2023-01-15T11:34:13;3.50;;;0.70;;
31728;SDS011;18309;43.658;1.312;2023-01-15T11:36:43;5.47;;;0.70;;
31728;SDS011;18309;43.658;1.312;2023-01-15T11:39:21;5.85;;;0.90;;
31728;SDS011;18309;43.658;1.312;2023-01-15T11:41:47;6.35;;;2.15;;
31728;SDS011;18309;43.658;1.312;2023-01-15T11:44:32;3.75;;;1.10;;
31728;SDS011;18309;43.658;1.312;2023-01-15T11:47:16;9.85;;;1.30;;
31728;SDS011;18309;43.658;1.312;2023-01-15T11:50:01;3.28;;;0.73;;
31728;SDS011;18309;43.658;1.312;2023-01-15T11:52:58;2.95;;;0.50;;
31728;SDS011;18309;43.658;1.312;2023-01-15T11:55:27;2.85;;;0.45;;
31728;SDS011;18309;43.658;1.312;2023-01-15T11:57:53;3.78;;;0.70;;
31728;SDS011;18309;43.658;1.312;2023-01-15T12:00:24;4.90;;;0.50;;
31728;SDS011;18309;43.658;1.312;2023-01-15T12:02:51;3.83;;;0.60;;
31728;SDS011;18309;43.658;1.312;2023-01-15T12:05:24;5.28;;;0.70;;
31728;SDS011;18309;43.658;1.312;2023-01-15T12:07:53;5.35;;;0.70;;
31728;SDS011;18309;43.658;1.312;2023-01-15T12:10:23;9.02;;;0.93;;
31728;SDS011;18309;43.658;1.312;2023-01-15T12:29:45;5.88;;;1.00;;
31728;SDS011;18309;43.658;1.312;2023-01-15T12:32:38;9.82;;;1.50;;
31728;SDS011;18309;43.658;1.312;2023-01-15T12:35:55;3.00;;;0.70;;
31728;SDS011;18309;43.658;1.312;2023-01-15T12:38:01;6.47;;;0.70;;
31728;SDS011;18309;43.658;1.312;2023-01-15T12:40:53;7.20;;;1.48;;
31728;SDS011;18309;43.658;1.312;2023-01-15T12:43:24;7.93;;;1.35;;
31728;SDS011;18309;43.658;1.312;2023-01-15T12:46:16;9.50;;;0.85;;
31728;SDS011;18309;43.658;1.312;2023-01-15T12:51:31;3.70;;;0.68;;
31728;SDS011;18309;43.658;1.312;2023-01-15T12:54:03;3.92;;;0.75;;
31728;SDS011;18309;43.658;1.312;2023-01-15T12:57:00;2.63;;;0.50;;
31728;SDS011;18309;43.658;1.312;2023-01-15T12:59:34;6.57;;;0.77;;
31728;SDS011;18309;43.658;1.312;2023-01-15T13:07:20;4.32;;;0.80;;
31728;SDS011;18309;43.658;1.312;2023-01-15T13:13:16;7.63;;;1.30;;
31728;SDS011;18309;43.658;1.312;2023-01-15T13:18:39;10.60;;;1.30;;
31728;SDS011;18309;43.658;1.312;2023-01-15T13:21:14;13.73;;;1.38;;
31728;SDS011;18309;43.658;1.312;2023-01-15T13:29:43;7.70;;;1.27;;
31728;SDS011;18309;43.658;1.312;2023-01-15T13:32:27;6.28;;;0.47;;
31728;SDS011;18309;43.658;1.312;2023-01-15T13:37:45;5.55;;;1.08;;
31728;SDS011;18309;43.658;1.312;2023-01-15T13:40:20;4.07;;;0.70;;
31728;SDS011;18309;43.658;1.312;2023-01-15T13:42:48;9.63;;;0.90;;
31728;SDS011;18309;43.658;1.312;2023-01-15T13:47:51;5.85;;;0.80;;
31728;SDS011;18309;43.658;1.312;2023-01-15T13:50:29;4.50;;;1.20;;
31728;SDS011;18309;43.658;1.312;2023-01-15T13:55:33;9.35;;;1.17;;
31728;SDS011;18309;43.658;1.312;2023-01-15T13:58:24;9.60;;;1.10;;
31728;SDS011;18309;43.658;1.312;2023-01-15T14:04:05;5.70;;;1.42;;
31728;SDS011;18309;43.658;1.312;2023-01-15T14:15:13;10.02;;;1.38;;
31728;SDS011;18309;43.658;1.312;2023-01-15T14:18:07;6.78;;;2.00;;
31728;SDS011;18309;43.658;1.312;2023-01-15T14:34:56;11.30;;;1.33;;
31728;SDS011;18309;43.658;1.312;2023-01-15T14:37:25;10.52;;;1.80;;
31728;SDS011;18309;43.658;1.312;2023-01-15T14:40:20;15.60;;;2.70;;
31728;SDS011;18309;43.658;1.312;2023-01-15T14:42:55;14.52;;;1.90;;
31728;SDS011;18309;43.658;1.312;2023-01-15T14:45:32;18.70;;;2.05;;
31728;SDS011;18309;43.658;1.312;2023-01-15T14:48:17;18.00;;;2.45;;
31728;SDS011;18309;43.658;1.312;2023-01-15T14:50:44;13.65;;;1.90;;
31728;SDS011;18309;43.658;1.312;2023-01-15T14:55:46;9.85;;;1.65;;
31728;SDS011;18309;43.658;1.312;2023-01-15T15:00:51;10.68;;;1.17;;
31728;SDS011;18309;43.658;1.312;2023-01-15T15:03:19;6.40;;;0.90;;
31728;SDS011;18309;43.658;1.312;2023-01-15T15:05:52;20.00;;;2.30;;
31728;SDS011;18309;43.658;1.312;2023-01-15T15:08:18;11.10;;;1.65;;
31728;SDS011;18309;43.658;1.312;2023-01-15T15:10:45;6.20;;;0.60;;
31728;SDS011;18309;43.658;1.312;2023-01-15T15:13:28;9.35;;;1.10;;
31728;SDS011;18309;43.658;1.312;2023-01-15T15:16:17;4.35;;;0.85;;
31728;SDS011;18309;43.658;1.312;2023-01-15T15:18:59;3.10;;;0.50;;
31728;SDS011;18309;43.658;1.312;2023-01-15T15:21:31;5.38;;;0.68;;
31728;SDS011;18309;43.658;1.312;2023-01-15T15:24:04;5.05;;;0.60;;
31728;SDS011;18309;43.658;1.312;2023-01-15T15:26:48;8.20;;;1.17;;
31728;SDS011;18309;43.658;1.312;2023-01-15T15:29:15;2.67;;;0.60;;
31728;SDS011;18309;43.658;1.312;2023-01-15T15:31:46;6.15;;;0.80;;
31728;SDS011;18309;43.658;1.312;2023-01-15T15:34:27;6.55;;;0.50;;
31728;SDS011;18309;43.658;1.312;2023-01-15T15:36:53;7.72;;;2.35;;
31728;SDS011;18309;43.658;1.312;2023-01-15T15:41:53;4.85;;;1.10;;
31728;SDS011;18309;43.658;1.312;2023-01-15T15:44:41;3.95;;;0.82;;
31728;SDS011;18309;43.658;1.312;2023-01-15T15:47:37;6.95;;;0.82;;
31728;SDS011;18309;43.658;1.312;2023-01-15T15:50:25;5.85;;;1.02;;
31728;SDS011;18309;43.658;1.312;2023-01-15T15:52:56;6.53;;;1.52;;
31728;SDS011;18309;43.658;1.312;2023-01-15T15:55:24;9.38;;;1.77;;
31728;SDS011;18309;43.658;1.312;2023-01-15T15:57:58;7.03;;;1.48;;
31728;SDS011;18309;43.658;1.312;2023-01-15T16:00:28;10.23;;;1.52;;
31728;SDS011;18309;43.658;1.312;2023-01-15T16:02:58;5.35;;;0.90;;
31728;SDS011;18309;43.658;1.312;2023-01-15T16:05:30;8.70;;;1.42;;
31728;SDS011;18309;43.658;1.312;2023-01-15T16:08:06;13.90;;;3.33;;
31728;SDS011;18309;43.658;1.312;2023-01-15T16:11:01;10.85;;;1.45;;
31728;SDS011;18309;43.658;1.312;2023-01-15T16:13:32;5.38;;;1.52;;
31728;SDS011;18309;43.658;1.312;2023-01-15T16:15:59;7.90;;;1.02;;
31728;SDS011;18309;43.658;1.312;2023-01-15T16:18:28;11.05;;;1.42;;
31728;SDS011;18309;43.658;1.312;2023-01-15T16:20:58;9.40;;;1.25;;
31728;SDS011;18309;43.658;1.312;2023-01-15T16:23:29;9.90;;;1.80;;
31728;SDS011;18309;43.658;1.312;2023-01-15T16:26:17;9.40;;;1.23;;
31728;SDS011;18309;43.658;1.312;2023-01-15T16:28:56;14.15;;;1.05;;
31728;SDS011;18309;43.658;1.312;2023-01-15T16:31:25;5.43;;;0.70;;
31728;SDS011;18309;43.658;1.312;2023-01-15T16:33:53;8.10;;;1.17;;
31728;SDS011;18309;43.658;1.312;2023-01-15T16:36:20;9.50;;;1.15;;
31728;SDS011;18309;43.658;1.312;2023-01-15T16:38:47;5.75;;;1.10;;
31728;SDS011;18309;43.658;1.312;2023-01-15T16:41:15;6.75;;;1.05;;
31728;SDS011;18309;43.658;1.312;2023-01-15T16:43:51;13.73;;;1.40;;
31728;SDS011;18309;43.658;1.312;2023-01-15T16:46:19;9.02;;;1.27;;
31728;SDS011;18309;43.658;1.312;2023-01-15T16:48:48;6.15;;;1.00;;
31728;SDS011;18309;43.658;1.312;2023-01-15T16:51:33;10.75;;;1.40;;
31728;SDS011;18309;43.658;1.312;2023-01-15T16:54:00;7.85;;;2.40;;
31728;SDS011;18309;43.658;1.312;2023-01-15T16:59:03;13.05;;;2.33;;
31728;SDS011;18309;43.658;1.312;2023-01-15T17:01:39;7.82;;;2.80;;
31728;SDS011;18309;43.658;1.312;2023-01-15T17:09:26;10.10;;;1.67;;
31728;SDS011;18309;43.658;1.312;2023-01-15T17:11:53;10.68;;;1.38;;
31728;SDS011;18309;43.658;1.312;2023-01-15T17:14:21;8.95;;;1.75;;
31728;SDS011;18309;43.658;1.312;2023-01-15T17:19:49;4.28;;;1.40;;
31728;SDS011;18309;43.658;1.312;2023-01-15T17:22:20;6.45;;;1.13;;
31728;SDS011;18309;43.658;1.312;2023-01-15T17:24:53;9.70;;;0.90;;
31728;SDS011;18309;43.658;1.312;2023-01-15T17:27:20;4.90;;;0.85;;
31728;SDS011;18309;43.658;1.312;2023-01-15T17:29:47;12.20;;;2.40;;
31728;SDS011;18309;43.658;1.312;2023-01-15T17:32:14;6.13;;;0.80;;
31728;SDS011;18309;43.658;1.312;2023-01-15T17:34:42;4.63;;;1.10;;
31728;SDS011;18309;43.658;1.312;2023-01-15T17:37:07;10.25;;;2.35;;
31728;SDS011;18309;43.658;1.312;2023-01-15T17:39:33;5.70;;;1.73;;
31728;SDS011;18309;43.658;1.312;2023-01-15T17:41:59;4.90;;;1.15;;